createdAt,value
2022-12-16T00:01:25.604Z,20.30
2022-12-16T00:03:55.862Z,19.30
2022-12-16T00:06:25.586Z,17.97
2022-12-16T00:08:52.955Z,21.20
2022-12-16T00:11:22.418Z,18.70
2022-12-16T00:13:49.394Z,19.50
2022-12-16T00:16:20.461Z,21.63
2022-12-16T00:18:48.488Z,22.97
2022-12-16T00:21:18.416Z,19.90
2022-12-16T00:23:45.819Z,21.40
2022-12-16T00:26:13.767Z,25.20
2022-12-16T00:28:43.655Z,17.33
2022-12-16T00:31:11.365Z,19.10
2022-12-16T00:33:38.648Z,21.30
2022-12-16T00:36:06.769Z,21.97
2022-12-16T00:38:33.715Z,20.37
2022-12-16T00:41:01.012Z,20.87
2022-12-16T00:43:27.961Z,19.80
2022-12-16T00:45:56.313Z,19.10
2022-12-16T00:48:23.468Z,17.87
2022-12-16T00:50:52.666Z,19.70
2022-12-16T00:53:23.705Z,22.63
2022-12-16T00:55:50.717Z,19.80
2022-12-16T00:58:19.028Z,20.83
2022-12-16T01:00:46.062Z,18.40
2022-12-16T01:03:21.059Z,16.53
2022-12-16T01:05:49.185Z,21.93
2022-12-16T01:08:16.450Z,18.63
2022-12-16T01:10:49.378Z,20.60
2022-12-16T01:13:17.763Z,18.23
2022-12-16T01:15:44.729Z,19.83
2022-12-16T01:18:11.758Z,18.87
2022-12-16T01:20:40.235Z,17.50
2022-12-16T01:23:07.326Z,18.33
2022-12-16T01:25:35.375Z,19.73
2022-12-16T01:28:02.334Z,17.03
2022-12-16T01:30:29.431Z,18.87
2022-12-16T01:32:56.369Z,19.87
2022-12-16T01:35:52.002Z,17.67
2022-12-16T01:38:11.642Z,20.43
2022-12-16T01:40:38.583Z,19.53
2022-12-16T01:43:12.679Z,18.47
2022-12-16T01:45:40.182Z,20.77
2022-12-16T01:48:21.343Z,21.77
2022-12-16T01:50:52.451Z,17.07
2022-12-16T01:53:21.886Z,20.63
2022-12-16T01:55:54.678Z,20.23
2022-12-16T01:58:26.789Z,18.90
2022-12-16T02:00:54.433Z,18.73
2022-12-16T02:03:22.576Z,22.20
2022-12-16T02:05:51.097Z,24.20
2022-12-16T02:08:21.036Z,20.33
2022-12-16T02:11:11.973Z,20.87
2022-12-16T02:14:09.023Z,23.33
2022-12-16T02:16:49.874Z,18.37
2022-12-16T02:20:03.829Z,25.87
2022-12-16T02:22:58.341Z,21.47
2022-12-16T02:25:57.954Z,23.73
2022-12-16T02:28:55.376Z,24.10
2022-12-16T02:31:34.893Z,21.60
2022-12-16T02:34:21.559Z,19.53
2022-12-16T02:37:08.122Z,23.20
2022-12-16T02:39:39.449Z,21.20
2022-12-16T02:42:19.451Z,20.50
2022-12-16T02:45:02.931Z,23.10
2022-12-16T02:47:32.931Z,22.30
2022-12-16T02:50:00.558Z,23.27
2022-12-16T02:52:32.958Z,21.30
2022-12-16T02:55:06.232Z,20.50
2022-12-16T02:58:08.983Z,25.30
2022-12-16T03:00:50.613Z,20.33
2022-12-16T03:03:30.869Z,21.27
2022-12-16T03:06:01.841Z,23.00
2022-12-16T03:08:35.558Z,20.20
2022-12-16T03:11:08.181Z,21.27
2022-12-16T03:13:43.723Z,22.90
2022-12-16T03:16:16.188Z,21.93
2022-12-16T03:18:54.961Z,22.80
2022-12-16T03:21:27.442Z,20.33
2022-12-16T03:24:00.457Z,20.97
2022-12-16T03:26:35.172Z,24.27
2022-12-16T03:29:09.954Z,19.03
2022-12-16T03:31:42.700Z,20.23
2022-12-16T03:34:20.395Z,20.13
2022-12-16T03:36:56.510Z,19.03
2022-12-16T03:39:26.978Z,24.03
2022-12-16T03:41:55.968Z,24.00
2022-12-16T03:44:25.233Z,20.57
2022-12-16T03:46:52.452Z,25.27
2022-12-16T03:49:22.233Z,26.53
2022-12-16T03:51:49.212Z,22.47
2022-12-16T03:54:16.214Z,23.20
2022-12-16T03:56:43.189Z,25.03
2022-12-16T03:59:10.903Z,23.60
2022-12-16T04:01:37.920Z,25.83
2022-12-16T04:04:05.273Z,22.97
2022-12-16T04:06:33.751Z,22.13
2022-12-16T04:09:00.715Z,21.23
2022-12-16T04:12:03.231Z,22.67
2022-12-16T04:14:53.265Z,22.37
2022-12-16T04:17:39.241Z,26.93
2022-12-16T04:20:34.045Z,22.73
2022-12-16T04:23:22.587Z,26.13
2022-12-16T04:25:50.322Z,21.97
2022-12-16T04:28:17.508Z,24.53
2022-12-16T04:30:44.518Z,22.27
2022-12-16T04:33:33.248Z,21.70
2022-12-16T04:36:19.132Z,21.87
2022-12-16T04:39:05.877Z,21.03
2022-12-16T04:41:51.389Z,23.87
2022-12-16T04:44:37.457Z,19.53
2022-12-16T04:47:23.286Z,21.63
2022-12-16T04:50:08.816Z,22.17
2022-12-16T04:52:54.669Z,25.80
2022-12-16T04:55:41.491Z,23.57
2022-12-16T04:58:27.180Z,22.40
2022-12-16T05:01:12.675Z,22.57
2022-12-16T05:03:58.427Z,23.13
2022-12-16T05:06:43.558Z,25.20
2022-12-16T05:09:29.021Z,22.93
2022-12-16T05:12:15.980Z,22.07
2022-12-16T05:15:01.831Z,24.87
2022-12-16T05:17:47.654Z,20.13
2022-12-16T05:20:33.535Z,21.73
2022-12-16T05:23:18.894Z,22.50
2022-12-16T05:26:04.932Z,21.77
2022-12-16T05:28:52.134Z,21.33
2022-12-16T05:31:38.175Z,21.30
2022-12-16T05:34:23.977Z,22.53
2022-12-16T05:37:09.391Z,24.03
2022-12-16T05:39:56.570Z,19.13
2022-12-16T05:42:42.081Z,25.43
2022-12-16T05:45:29.652Z,22.03
2022-12-16T05:48:15.191Z,22.07
2022-12-16T05:51:00.749Z,20.57
2022-12-16T05:53:46.291Z,23.60
2022-12-16T05:56:31.850Z,22.70
2022-12-16T05:59:17.178Z,24.20
2022-12-16T06:02:04.243Z,18.77
2022-12-16T06:04:50.153Z,22.53
2022-12-16T06:07:35.844Z,21.10
2022-12-16T06:10:36.966Z,21.17
2022-12-16T06:13:22.424Z,23.33
2022-12-16T06:16:09.133Z,20.70
2022-12-16T06:18:56.334Z,20.30
2022-12-16T06:21:42.791Z,22.57
2022-12-16T06:24:28.792Z,23.80
2022-12-16T06:27:14.692Z,27.00
2022-12-16T06:30:00.189Z,24.10
2022-12-16T06:32:45.731Z,24.27
2022-12-16T06:35:32.556Z,28.13
2022-12-16T06:38:18.057Z,27.10
2022-12-16T06:41:03.439Z,27.73
2022-12-16T06:43:48.998Z,25.47
2022-12-16T06:46:34.591Z,22.77
2022-12-16T06:49:20.104Z,22.53
2022-12-16T06:52:06.862Z,21.93
2022-12-16T06:54:52.501Z,27.27
2022-12-16T06:57:37.902Z,25.10
2022-12-16T07:00:27.385Z,24.27
2022-12-16T07:03:16.921Z,25.23
2022-12-16T07:06:02.848Z,26.00
2022-12-16T07:08:49.531Z,29.03
2022-12-16T07:11:35.275Z,31.50
2022-12-16T07:14:21.124Z,29.23
2022-12-16T07:17:06.435Z,28.90
2022-12-16T07:19:52.035Z,31.50
2022-12-16T07:22:37.770Z,33.47
2022-12-16T07:25:26.223Z,31.43
2022-12-16T07:28:15.534Z,34.27
2022-12-16T07:31:02.464Z,39.50
2022-12-16T07:33:47.919Z,46.70
2022-12-16T07:36:33.628Z,39.23
2022-12-16T07:39:19.135Z,39.30
2022-12-16T07:42:05.949Z,36.47
2022-12-16T07:44:51.597Z,34.07
2022-12-16T07:47:36.963Z,33.33
2022-12-16T07:50:23.524Z,37.77
2022-12-16T07:53:13.572Z,42.30
2022-12-16T07:55:58.845Z,40.33
2022-12-16T07:58:46.634Z,34.17
2022-12-16T08:01:32.726Z,38.37
2022-12-16T08:04:18.495Z,33.67
2022-12-16T08:07:04.671Z,38.57
2022-12-16T08:09:50.168Z,32.27
2022-12-16T08:12:36.975Z,35.37
2022-12-16T08:15:25.618Z,39.30
2022-12-16T08:18:12.354Z,32.30
2022-12-16T08:20:58.143Z,32.00
2022-12-16T08:23:44.049Z,28.00
2022-12-16T08:26:29.708Z,30.30
2022-12-16T08:29:42.415Z,35.80
2022-12-16T08:32:22.756Z,32.60
2022-12-16T08:35:08.092Z,32.23
2022-12-16T08:37:54.108Z,30.60
2022-12-16T08:40:43.033Z,34.60
2022-12-16T08:43:29.117Z,31.33
2022-12-16T08:46:15.336Z,34.03
2022-12-16T08:49:02.403Z,32.93
2022-12-16T08:51:48.638Z,33.40
2022-12-16T08:54:34.162Z,37.70
2022-12-16T08:57:20.250Z,35.37
2022-12-16T09:00:06.110Z,38.10
2022-12-16T09:02:51.659Z,33.40
2022-12-16T09:05:40.097Z,36.20
2022-12-16T09:08:26.288Z,32.10
2022-12-16T09:11:11.954Z,69.83
2022-12-16T09:13:58.696Z,63.20
2022-12-16T09:16:44.496Z,56.67
2022-12-16T09:19:30.352Z,33.47
2022-12-16T09:22:17.322Z,34.43
2022-12-16T09:25:03.198Z,29.07
2022-12-16T09:27:48.584Z,30.77
2022-12-16T09:30:34.258Z,33.43
2022-12-16T09:33:21.165Z,33.50
2022-12-16T09:36:26.739Z,37.10
2022-12-16T09:39:13.450Z,36.50
2022-12-16T09:42:02.352Z,35.77
2022-12-16T09:45:06.632Z,34.03
2022-12-16T09:48:06.707Z,30.17
2022-12-16T09:50:58.363Z,36.00
2022-12-16T09:53:46.918Z,30.93
2022-12-16T09:56:39.326Z,28.77
2022-12-16T09:59:33.165Z,32.23
2022-12-16T10:02:20.473Z,29.77
2022-12-16T10:05:10.681Z,30.50
2022-12-16T10:08:08.715Z,25.63
2022-12-16T10:11:10.471Z,29.80
2022-12-16T10:14:07.372Z,26.37
2022-12-16T10:17:09.754Z,30.73
2022-12-16T10:20:12.265Z,25.50
2022-12-16T10:23:08.946Z,26.10
2022-12-16T10:26:04.206Z,25.00
2022-12-16T10:29:05.031Z,24.07
2022-12-16T10:31:52.146Z,27.10
2022-12-16T10:34:45.562Z,65.43
2022-12-16T10:37:39.547Z,112.37
2022-12-16T10:40:33.775Z,33.67
2022-12-16T10:43:24.115Z,27.73
2022-12-16T10:46:15.262Z,23.40
2022-12-16T10:49:01.840Z,23.83
2022-12-16T10:51:48.741Z,25.03
2022-12-16T10:54:50.681Z,23.13
2022-12-16T10:57:51.187Z,24.70
2022-12-16T11:00:55.492Z,26.90
2022-12-16T11:03:47.988Z,23.80
2022-12-16T11:06:40.823Z,22.80
2022-12-16T11:09:48.309Z,23.90
2022-12-16T11:12:48.224Z,19.97
2022-12-16T11:15:43.216Z,19.80
2022-12-16T11:18:32.816Z,29.17
2022-12-16T11:21:36.775Z,25.83
2022-12-16T11:24:33.403Z,24.90
2022-12-16T11:27:21.902Z,33.33
2022-12-16T11:30:10.642Z,36.17
2022-12-16T11:32:59.222Z,27.13
2022-12-16T11:35:49.312Z,27.97
2022-12-16T11:38:47.888Z,27.53
2022-12-16T11:41:44.915Z,25.30
2022-12-16T11:44:41.149Z,35.43
2022-12-16T11:47:42.216Z,28.70
2022-12-16T11:50:35.728Z,24.53
2022-12-16T11:53:28.709Z,28.20
2022-12-16T11:56:19.147Z,32.83
2022-12-16T11:59:10.125Z,53.13
2022-12-16T12:02:03.889Z,28.70
2022-12-16T12:04:49.832Z,27.63
2022-12-16T12:07:57.490Z,26.87
2022-12-16T12:11:22.603Z,27.60
2022-12-16T12:14:28.807Z,26.20
2022-12-16T12:17:32.100Z,26.70
2022-12-16T12:20:45.241Z,27.23
2022-12-16T12:23:49.655Z,28.63
2022-12-16T12:26:45.734Z,29.83
2022-12-16T12:29:51.454Z,30.07
2022-12-16T12:32:51.892Z,27.30
2022-12-16T12:36:00.763Z,32.13
2022-12-16T12:38:59.138Z,28.67
2022-12-16T12:41:59.522Z,26.13
2022-12-16T12:45:04.104Z,26.70
2022-12-16T12:47:56.894Z,27.77
2022-12-16T12:50:53.137Z,27.33
2022-12-16T12:53:54.616Z,27.03
2022-12-16T12:56:58.805Z,28.17
2022-12-16T13:00:02.042Z,27.03
2022-12-16T13:03:01.309Z,26.37
2022-12-16T13:05:51.299Z,28.53
2022-12-16T13:09:16.823Z,26.80
2022-12-16T13:12:48.452Z,27.53
2022-12-16T13:15:53.529Z,27.60
2022-12-16T13:18:43.536Z,24.67
2022-12-16T13:22:04.924Z,27.00
2022-12-16T13:24:59.474Z,25.13
2022-12-16T13:28:04.045Z,35.37
2022-12-16T13:30:52.090Z,25.50
2022-12-16T13:33:47.741Z,24.83
2022-12-16T13:36:36.838Z,25.20
2022-12-16T13:39:42.826Z,26.17
2022-12-16T13:43:08.810Z,26.67
2022-12-16T13:46:01.512Z,26.37
2022-12-16T13:48:55.618Z,23.97
2022-12-16T13:52:19.874Z,26.70
2022-12-16T13:55:24.988Z,24.27
2022-12-16T13:58:20.923Z,23.07
2022-12-16T14:01:20.136Z,26.30
2022-12-16T14:04:09.546Z,27.70
2022-12-16T14:06:58.582Z,23.43
2022-12-16T14:09:52.869Z,19.10
2022-12-16T14:13:15.204Z,20.67
2022-12-16T14:16:18.729Z,21.07
2022-12-16T14:19:26.994Z,23.30
2022-12-16T14:22:33.253Z,23.93
2022-12-16T14:25:27.992Z,23.33
2022-12-16T14:28:16.988Z,21.53
2022-12-16T14:31:02.497Z,22.17
2022-12-16T14:33:48.526Z,19.40
2022-12-16T14:36:43.793Z,24.17
2022-12-16T14:39:32.289Z,23.80
2022-12-16T14:42:18.017Z,25.90
2022-12-16T14:45:06.915Z,25.23
2022-12-16T14:47:58.771Z,24.10
2022-12-16T14:50:48.394Z,25.13
2022-12-16T14:53:37.818Z,25.60
2022-12-16T14:56:37.039Z,24.37
2022-12-16T14:59:38.010Z,24.53
2022-12-16T15:02:46.510Z,28.53
2022-12-16T15:05:33.589Z,26.57
2022-12-16T15:08:19.739Z,21.03
2022-12-16T15:11:06.437Z,26.47
2022-12-16T15:13:57.750Z,29.10
2022-12-16T15:16:53.368Z,25.23
2022-12-16T15:19:43.045Z,25.50
2022-12-16T15:22:35.902Z,24.87
2022-12-16T15:25:22.422Z,30.00
2022-12-16T15:28:30.474Z,26.10
2022-12-16T15:31:31.843Z,23.83
2022-12-16T15:34:40.464Z,19.23
2022-12-16T15:37:41.876Z,20.43
2022-12-16T15:40:46.766Z,22.20
2022-12-16T15:43:57.339Z,22.07
2022-12-16T15:46:46.402Z,22.27
2022-12-16T15:49:42.636Z,21.50
2022-12-16T15:52:53.312Z,27.57
2022-12-16T15:55:48.000Z,23.67
2022-12-16T15:58:40.080Z,25.87
2022-12-16T16:01:26.668Z,25.97
2022-12-16T16:04:15.026Z,25.60
2022-12-16T16:07:06.557Z,27.73
2022-12-16T16:09:56.148Z,27.93
2022-12-16T16:12:44.295Z,29.00
2022-12-16T16:15:33.298Z,25.93
2022-12-16T16:18:24.427Z,31.60
2022-12-16T16:21:10.970Z,25.07
2022-12-16T16:23:56.520Z,29.17
2022-12-16T16:26:46.756Z,27.47
2022-12-16T16:29:32.495Z,24.33
2022-12-16T16:32:18.157Z,25.00
2022-12-16T16:35:04.046Z,24.20
2022-12-16T16:37:49.328Z,24.73
2022-12-16T16:40:45.678Z,24.50
2022-12-16T16:43:32.997Z,28.37
2022-12-16T16:46:19.185Z,26.13
2022-12-16T16:49:05.195Z,30.23
2022-12-16T16:51:50.813Z,26.40
2022-12-16T16:54:36.440Z,31.00
2022-12-16T16:57:22.214Z,27.17
2022-12-16T17:00:09.101Z,29.63
2022-12-16T17:02:54.964Z,28.50
2022-12-16T17:05:41.733Z,30.37
2022-12-16T17:08:27.112Z,25.60
2022-12-16T17:11:29.835Z,27.40
2022-12-16T17:14:15.473Z,24.80
2022-12-16T17:17:02.322Z,28.60
2022-12-16T17:19:47.918Z,25.30
2022-12-16T17:22:33.471Z,25.03
2022-12-16T17:25:19.328Z,26.20
2022-12-16T17:28:05.163Z,24.30
2022-12-16T17:30:50.759Z,31.33
2022-12-16T17:33:37.976Z,25.03
2022-12-16T17:36:28.503Z,32.20
2022-12-16T17:39:17.249Z,31.13
2022-12-16T17:42:03.197Z,32.63
2022-12-16T17:44:48.926Z,33.87
2022-12-16T17:47:35.243Z,32.30
2022-12-16T17:50:24.003Z,33.67
2022-12-16T17:53:13.073Z,30.50
2022-12-16T17:55:58.574Z,28.90
2022-12-16T17:58:52.789Z,42.60
2022-12-16T18:01:39.215Z,33.63
2022-12-16T18:04:25.695Z,34.97
2022-12-16T18:07:13.156Z,33.67
2022-12-16T18:09:58.633Z,34.67
2022-12-16T18:12:45.477Z,38.37
2022-12-16T18:15:31.234Z,37.63
2022-12-16T18:18:17.110Z,36.67
2022-12-16T18:21:03.137Z,33.43
2022-12-16T18:23:50.614Z,32.63
2022-12-16T18:26:36.652Z,34.83
2022-12-16T18:29:22.726Z,49.43
2022-12-16T18:32:08.799Z,40.63
2022-12-16T18:34:54.301Z,35.80
2022-12-16T18:37:40.144Z,35.97
2022-12-16T18:40:28.750Z,32.27
2022-12-16T18:43:14.625Z,33.83
2022-12-16T18:46:00.172Z,35.10
2022-12-16T18:48:47.003Z,35.07
2022-12-16T18:51:32.346Z,34.40
2022-12-16T18:54:18.083Z,30.23
2022-12-16T18:57:06.252Z,35.57
2022-12-16T18:59:51.954Z,35.90
2022-12-16T19:02:37.491Z,34.23
2022-12-16T19:05:23.683Z,34.20
2022-12-16T19:08:14.087Z,33.37
2022-12-16T19:11:00.382Z,32.47
2022-12-16T19:13:47.196Z,38.20
2022-12-16T19:16:32.775Z,34.50
2022-12-16T19:19:20.410Z,32.30
2022-12-16T19:22:06.599Z,34.27
2022-12-16T19:24:52.155Z,25.83
2022-12-16T19:27:37.704Z,29.37
2022-12-16T19:30:27.331Z,24.57
2022-12-16T19:33:12.971Z,28.93
2022-12-16T19:35:58.456Z,25.93
2022-12-16T19:38:43.781Z,25.50
2022-12-16T19:41:33.859Z,29.33
2022-12-16T19:44:20.269Z,27.03
2022-12-16T19:47:07.089Z,26.87
2022-12-16T19:49:52.611Z,24.40
2022-12-16T19:52:40.726Z,27.93
2022-12-16T19:55:27.142Z,25.70
2022-12-16T19:58:13.003Z,31.90
2022-12-16T20:00:58.634Z,29.17
2022-12-16T20:03:46.195Z,28.03
2022-12-16T20:06:32.375Z,28.70
2022-12-16T20:09:18.026Z,32.20
2022-12-16T20:12:03.915Z,34.37
2022-12-16T20:14:49.803Z,33.43
2022-12-16T20:17:35.297Z,28.90
2022-12-16T20:20:23.105Z,30.07
2022-12-16T20:23:08.757Z,26.53
2022-12-16T20:29:00.665Z,27.73
2022-12-16T20:31:47.916Z,27.17
2022-12-16T20:34:33.881Z,29.87
2022-12-16T20:37:21.062Z,26.53
2022-12-16T20:40:06.629Z,34.33
2022-12-16T20:45:57.520Z,27.70
2022-12-16T20:48:43.161Z,27.53
2022-12-16T20:51:29.206Z,24.97
2022-12-16T20:54:16.174Z,27.83
2022-12-16T20:57:02.047Z,30.17
2022-12-16T20:59:47.382Z,26.87
2022-12-16T21:02:34.217Z,28.67
2022-12-16T21:05:20.924Z,31.33
2022-12-16T21:08:20.685Z,28.30
2022-12-16T21:11:07.658Z,28.70
2022-12-16T21:13:56.447Z,27.43
2022-12-16T21:16:42.202Z,30.10
2022-12-16T21:19:33.101Z,27.43
2022-12-16T21:22:19.237Z,29.63
2022-12-16T21:25:04.909Z,30.07
2022-12-16T21:27:51.715Z,31.57
2022-12-16T21:30:38.219Z,31.97
2022-12-16T21:33:23.614Z,28.97
2022-12-16T21:36:12.111Z,28.13
2022-12-16T21:38:58.022Z,28.53
2022-12-16T21:41:43.498Z,32.30
2022-12-16T21:44:30.342Z,35.00
2022-12-16T21:47:15.904Z,27.20
2022-12-16T21:50:01.707Z,28.43
2022-12-16T21:52:47.663Z,30.83
2022-12-16T21:55:33.270Z,31.73
2022-12-16T21:58:18.843Z,30.60
2022-12-16T22:01:12.628Z,32.27
2022-12-16T22:03:58.191Z,31.13
2022-12-16T22:06:48.577Z,25.23
2022-12-16T22:09:34.699Z,31.80
2022-12-16T22:12:20.362Z,35.37
2022-12-16T22:15:05.957Z,27.70
2022-12-16T22:17:57.945Z,29.43
2022-12-16T22:20:44.186Z,28.77
2022-12-16T22:23:29.933Z,26.63
2022-12-16T22:26:16.599Z,29.33
2022-12-16T22:29:02.159Z,28.20
2022-12-16T22:31:47.998Z,25.73
2022-12-16T22:34:35.686Z,26.77
2022-12-16T22:37:21.334Z,29.30
2022-12-16T22:40:07.804Z,30.37
2022-12-16T22:42:53.307Z,26.63
2022-12-16T22:45:39.278Z,28.63
2022-12-16T22:48:25.266Z,29.13
2022-12-16T22:51:12.136Z,25.73
2022-12-16T22:53:57.948Z,29.40
2022-12-16T22:56:43.562Z,28.80
2022-12-16T22:59:29.066Z,26.60
2022-12-16T23:02:14.847Z,33.07
2022-12-16T23:05:00.471Z,26.17
2022-12-16T23:07:47.740Z,28.27
2022-12-16T23:10:33.423Z,27.37
2022-12-16T23:13:19.306Z,27.87
2022-12-16T23:16:04.944Z,29.50
2022-12-16T23:18:50.792Z,29.27
2022-12-16T23:21:38.498Z,33.97
2022-12-16T23:24:27.586Z,31.63
2022-12-16T23:27:13.597Z,29.87
2022-12-16T23:29:59.094Z,33.83
2022-12-16T23:32:30.905Z,26.33
2022-12-16T23:32:45.167Z,32.20
2022-12-16T23:35:31.078Z,30.07
2022-12-16T23:38:20.660Z,33.50
2022-12-16T23:41:13.059Z,31.23
2022-12-16T23:44:00.339Z,29.67
2022-12-16T23:46:46.301Z,30.73
2022-12-16T23:49:32.239Z,27.70
2022-12-16T23:52:18.016Z,30.37
2022-12-16T23:55:03.515Z,28.00
2022-12-16T23:57:50.475Z,29.20
